ASA6 KLAX-KDCA
Flight info
| Callsign | ASA6 |
|---|---|
| Flight time | N/A |
| Altitude | 37000 |
| Route | OSHNN1 BEALE J146 HBU ZOMBZ ZIRKL MCK KAWWA Q136 BVEEE JALAP GUZIK MAROC BVT ROD APE J30 LUISE FRDMM6 |
| Aircraft | B38M/M-SDE1FGHILORVWXY/HB1 |
Departure
| Time | 2026-04-24 12:49 |
|---|---|
| Airport | Los Angeles International Airport (KLAX) |
Arrival
| Time | N/A |
|---|---|
| Airport | Ronald Reagan Washington National Airport (KDCA) |
| Time | Latitude | Longitude | Altitude | Speed | Heading |
|---|---|---|---|---|---|
| 2026-04-24 12:33 | 33.94038 | -118.40244 | 98 ft | 0 kts | 74° |
| 2026-04-24 12:39 | 33.94027 | -118.40302 | 98 ft | 3 kts | 115° |
| 2026-04-24 12:39 | 33.94038 | -118.40314 | 97 ft | 3 kts | 165° |
| 2026-04-24 12:39 | 33.94043 | -118.40316 | 98 ft | 3 kts | 173° |
| 2026-04-24 12:40 | 33.94033 | -118.40314 | 98 ft | 0 kts | 173° |
| 2026-04-24 12:43 | 33.94024 | -118.40313 | 99 ft | 5 kts | 171° |
| 2026-04-24 12:44 | 33.93959 | -118.40300 | 101 ft | 15 kts | 172° |
| 2026-04-24 12:44 | 33.93855 | -118.40257 | 106 ft | 15 kts | 105° |
| 2026-04-24 12:44 | 33.93864 | -118.40133 | 107 ft | 16 kts | 83° |
| 2026-04-24 12:44 | 33.93878 | -118.39998 | 107 ft | 17 kts | 84° |
| 2026-04-24 12:45 | 33.93894 | -118.39845 | 106 ft | 19 kts | 83° |
| 2026-04-24 12:45 | 33.93911 | -118.39678 | 104 ft | 21 kts | 83° |
| 2026-04-24 12:45 | 33.93929 | -118.39499 | 105 ft | 22 kts | 82° |
| 2026-04-24 12:45 | 33.93949 | -118.39305 | 103 ft | 24 kts | 83° |
| 2026-04-24 12:46 | 33.93972 | -118.39099 | 104 ft | 25 kts | 83° |
| 2026-04-24 12:46 | 33.93991 | -118.38887 | 104 ft | 26 kts | 84° |
| 2026-04-24 12:46 | 33.94014 | -118.38671 | 105 ft | 27 kts | 83° |
| 2026-04-24 12:46 | 33.94036 | -118.38451 | 106 ft | 27 kts | 83° |
| 2026-04-24 12:47 | 33.94061 | -118.38219 | 106 ft | 28 kts | 83° |
| 2026-04-24 12:47 | 33.94075 | -118.38079 | 105 ft | 11 kts | 83° |
| 2026-04-24 12:47 | 33.94047 | -118.38005 | 109 ft | 8 kts | 156° |
| 2026-04-24 12:47 | 33.94003 | -118.37998 | 112 ft | 5 kts | 181° |
| 2026-04-24 12:48 | 33.93986 | -118.38021 | 111 ft | 4 kts | 261° |
| 2026-04-24 12:48 | 33.93979 | -118.38080 | 112 ft | 21 kts | 262° |
| 2026-04-24 12:48 | 33.93931 | -118.38564 | 112 ft | 95 kts | 263° |
| 2026-04-24 12:48 | 33.93822 | -118.39613 | 110 ft | 155 kts | 263° |
| 2026-04-24 12:49 | 33.93677 | -118.41043 | 360 ft | 185 kts | 263° |
| 2026-04-24 12:49 | 33.93532 | -118.42629 | 1019 ft | 186 kts | 263° |
| 2026-04-24 12:49 | 33.93378 | -118.44164 | 1479 ft | 188 kts | 262° |
| 2026-04-24 12:49 | 33.93219 | -118.45779 | 1937 ft | 203 kts | 262° |
| 2026-04-24 12:50 | 33.92957 | -118.47418 | 2733 ft | 205 kts | 245° |
| 2026-04-24 12:50 | 33.91990 | -118.48742 | 3292 ft | 215 kts | 219° |
| 2026-04-24 12:50 | 33.90853 | -118.49909 | 4161 ft | 219 kts | 223° |
| 2026-04-24 12:50 | 33.89745 | -118.51216 | 4820 ft | 233 kts | 227° |
| 2026-04-24 12:51 | 33.88614 | -118.52686 | 5484 ft | 247 kts | 229° |
| 2026-04-24 12:51 | 33.87462 | -118.54256 | 6225 ft | 258 kts | 228° |
| 2026-04-24 12:51 | 33.86004 | -118.55520 | 6751 ft | 276 kts | 202° |
| 2026-04-24 12:51 | 33.84109 | -118.55833 | 7693 ft | 278 kts | 176° |
| 2026-04-24 12:52 | 33.82177 | -118.55389 | 8492 ft | 287 kts | 171° |
| 2026-04-24 12:52 | 33.80219 | -118.54886 | 9339 ft | 291 kts | 171° |
| 2026-04-24 12:52 | 33.78214 | -118.54361 | 10148 ft | 296 kts | 171° |
| 2026-04-24 12:52 | 33.76154 | -118.53813 | 10618 ft | 313 kts | 171° |
| 2026-04-24 12:53 | 33.73963 | -118.53225 | 11063 ft | 329 kts | 171° |
| 2026-04-24 12:53 | 33.71744 | -118.52401 | 11638 ft | 341 kts | 155° |
| 2026-04-24 12:53 | 33.69875 | -118.50686 | 12495 ft | 349 kts | 135° |
| 2026-04-24 12:53 | 33.68910 | -118.49068 | 12968 ft | 357 kts | 120° |
| 2026-04-24 12:54 | 33.67958 | -118.46086 | 13817 ft | 362 kts | 111° |
| 2026-04-24 12:54 | 33.67108 | -118.43223 | 14437 ft | 368 kts | 112° |
| 2026-04-24 12:54 | 33.66239 | -118.40305 | 15123 ft | 373 kts | 112° |
| 2026-04-24 12:54 | 33.65373 | -118.37391 | 15754 ft | 378 kts | 112° |
| 2026-04-24 12:55 | 33.64626 | -118.34345 | 16399 ft | 385 kts | 99° |
| 2026-04-24 12:55 | 33.64520 | -118.32141 | 16873 ft | 388 kts | 91° |
| 2026-04-24 12:55 | 33.64492 | -118.28868 | 17465 ft | 395 kts | 91° |
| 2026-04-24 12:55 | 33.64474 | -118.25564 | 18088 ft | 399 kts | 91° |
| 2026-04-24 12:56 | 33.64561 | -118.22208 | 18622 ft | 405 kts | 81° |
| 2026-04-24 12:56 | 33.65365 | -118.18999 | 19171 ft | 406 kts | 62° |
| 2026-04-24 12:56 | 33.66941 | -118.16206 | 19633 ft | 407 kts | 43° |
| 2026-04-24 12:56 | 33.69053 | -118.14021 | 20117 ft | 406 kts | 34° |
| 2026-04-24 12:57 | 33.71287 | -118.11939 | 20594 ft | 410 kts | 33° |
| 2026-04-24 12:57 | 33.73570 | -118.09846 | 21120 ft | 413 kts | 33° |
| 2026-04-24 12:57 | 33.75849 | -118.07780 | 21615 ft | 417 kts | 32° |
| 2026-04-24 12:57 | 33.78186 | -118.05674 | 22124 ft | 421 kts | 32° |
| 2026-04-24 12:58 | 33.80547 | -118.03550 | 22625 ft | 425 kts | 32° |
| 2026-04-24 12:58 | 33.82924 | -118.01414 | 23106 ft | 429 kts | 32° |
| 2026-04-24 12:58 | 33.85316 | -117.99262 | 23618 ft | 432 kts | 32° |
| 2026-04-24 12:58 | 33.87736 | -117.97085 | 24020 ft | 435 kts | 32° |
| 2026-04-24 12:59 | 33.90133 | -117.94924 | 24436 ft | 438 kts | 32° |
| 2026-04-24 12:59 | 33.92560 | -117.92712 | 24847 ft | 441 kts | 32° |
| 2026-04-24 12:59 | 33.95016 | -117.90475 | 25259 ft | 443 kts | 32° |
| 2026-04-24 12:59 | 33.97477 | -117.88225 | 25650 ft | 446 kts | 32° |
| 2026-04-24 13:00 | 33.99971 | -117.85942 | 26047 ft | 449 kts | 32° |
| 2026-04-24 13:00 | 34.02459 | -117.83666 | 26433 ft | 452 kts | 32° |
| 2026-04-24 13:00 | 34.04974 | -117.81362 | 26811 ft | 455 kts | 32° |
| 2026-04-24 13:00 | 34.07462 | -117.79081 | 27191 ft | 457 kts | 32° |
| 2026-04-24 13:01 | 34.09837 | -117.76411 | 27568 ft | 468 kts | 47° |
| 2026-04-24 13:01 | 34.11820 | -117.73401 | 27968 ft | 469 kts | 46° |
| 2026-04-24 13:01 | 34.13937 | -117.70313 | 28232 ft | 474 kts | 46° |
| 2026-04-24 13:01 | 34.16027 | -117.67232 | 28642 ft | 476 kts | 46° |
| 2026-04-24 13:02 | 34.18129 | -117.64117 | 28961 ft | 479 kts | 46° |
| 2026-04-24 13:02 | 34.20146 | -117.61120 | 29283 ft | 482 kts | 46° |
| 2026-04-24 13:02 | 34.22342 | -117.57855 | 29688 ft | 483 kts | 46° |
| 2026-04-24 13:02 | 34.24467 | -117.54691 | 29865 ft | 488 kts | 46° |
| 2026-04-24 13:03 | 34.26605 | -117.51504 | 30233 ft | 489 kts | 46° |
| 2026-04-24 13:03 | 34.28734 | -117.48331 | 30433 ft | 493 kts | 46° |
| 2026-04-24 13:03 | 34.30890 | -117.45111 | 30704 ft | 494 kts | 46° |
| 2026-04-24 13:03 | 34.33058 | -117.41872 | 31001 ft | 496 kts | 46° |
| 2026-04-24 13:04 | 34.35235 | -117.38616 | 31242 ft | 499 kts | 46° |
| 2026-04-24 13:04 | 34.37423 | -117.35341 | 31522 ft | 501 kts | 46° |
| 2026-04-24 13:04 | 34.39622 | -117.32046 | 31787 ft | 503 kts | 46° |
| 2026-04-24 13:04 | 34.41823 | -117.28745 | 32056 ft | 506 kts | 46° |
| 2026-04-24 13:05 | 34.44038 | -117.25421 | 32324 ft | 508 kts | 46° |
| 2026-04-24 13:05 | 34.46263 | -117.22078 | 32579 ft | 510 kts | 46° |
| 2026-04-24 13:05 | 34.48488 | -117.18732 | 32835 ft | 512 kts | 46° |
| 2026-04-24 13:05 | 34.50731 | -117.15357 | 33074 ft | 514 kts | 47° |
| 2026-04-24 13:06 | 34.52932 | -117.12041 | 33318 ft | 516 kts | 46° |
| 2026-04-24 13:06 | 34.55228 | -117.08682 | 33600 ft | 516 kts | 45° |
| 2026-04-24 13:06 | 34.57508 | -117.05377 | 33936 ft | 516 kts | 45° |
| 2026-04-24 13:06 | 34.59806 | -117.02028 | 34221 ft | 516 kts | 46° |
| 2026-04-24 13:07 | 34.62095 | -116.98688 | 34468 ft | 516 kts | 46° |
| 2026-04-24 13:07 | 34.64387 | -116.95339 | 34769 ft | 515 kts | 46° |
| 2026-04-24 13:07 | 34.66679 | -116.91989 | 35055 ft | 515 kts | 46° |
| 2026-04-24 13:07 | 34.68965 | -116.88643 | 35324 ft | 515 kts | 45° |
| 2026-04-24 13:08 | 34.71221 | -116.85336 | 35590 ft | 515 kts | 45° |
| 2026-04-24 13:08 | 34.73499 | -116.81996 | 35848 ft | 514 kts | 45° |
| 2026-04-24 13:08 | 34.75785 | -116.78641 | 36101 ft | 514 kts | 46° |
| 2026-04-24 13:09 | 34.80345 | -116.71938 | 36568 ft | 514 kts | 45° |
| 2026-04-24 13:09 | 34.82620 | -116.68588 | 36798 ft | 514 kts | 45° |
| 2026-04-24 13:09 | 34.84906 | -116.65242 | 36969 ft | 513 kts | 43° |
| 2026-04-24 13:09 | 34.87318 | -116.62056 | 36947 ft | 511 kts | 41° |
| 2026-04-24 13:10 | 34.92083 | -116.55731 | 36950 ft | 510 kts | 42° |
| 2026-04-24 13:10 | 34.96854 | -116.49340 | 36935 ft | 510 kts | 42° |
| 2026-04-24 13:11 | 35.01625 | -116.42936 | 36922 ft | 510 kts | 42° |
| 2026-04-24 13:11 | 35.06394 | -116.36523 | 36925 ft | 510 kts | 42° |
| 2026-04-24 13:12 | 35.11126 | -116.30148 | 36918 ft | 510 kts | 43° |
| 2026-04-24 13:12 | 35.15884 | -116.23725 | 36921 ft | 510 kts | 43° |
| 2026-04-24 13:13 | 35.20639 | -116.17295 | 36921 ft | 509 kts | 43° |
| 2026-04-24 13:13 | 35.25384 | -116.10865 | 36920 ft | 509 kts | 43° |
| 2026-04-24 13:14 | 35.30093 | -116.04473 | 36932 ft | 509 kts | 43° |
| 2026-04-24 13:14 | 35.34832 | -115.98027 | 36939 ft | 509 kts | 43° |
| 2026-04-24 13:15 | 35.39567 | -115.91575 | 36930 ft | 509 kts | 43° |
| 2026-04-24 13:15 | 35.44300 | -115.85114 | 36940 ft | 509 kts | 43° |
| 2026-04-24 13:16 | 35.49028 | -115.78646 | 36957 ft | 509 kts | 43° |
| 2026-04-24 13:16 | 35.53716 | -115.72222 | 36955 ft | 509 kts | 43° |
| 2026-04-24 13:17 | 35.58431 | -115.65747 | 36952 ft | 509 kts | 43° |
| 2026-04-24 13:17 | 35.63142 | -115.59269 | 36962 ft | 508 kts | 43° |
| 2026-04-24 13:18 | 35.67843 | -115.52791 | 36965 ft | 508 kts | 43° |
| 2026-04-24 13:18 | 35.72545 | -115.46302 | 36966 ft | 508 kts | 43° |
| 2026-04-24 13:19 | 35.77212 | -115.39852 | 36960 ft | 508 kts | 43° |
| 2026-04-24 13:19 | 35.81911 | -115.33348 | 36963 ft | 508 kts | 43° |
| 2026-04-24 13:20 | 35.86598 | -115.26845 | 36958 ft | 507 kts | 43° |
| 2026-04-24 13:20 | 35.91275 | -115.20345 | 36956 ft | 507 kts | 43° |
| 2026-04-24 13:21 | 35.95921 | -115.13875 | 36955 ft | 507 kts | 43° |
| 2026-04-24 13:21 | 36.00563 | -115.07398 | 36956 ft | 506 kts | 43° |
| 2026-04-24 13:22 | 36.05231 | -115.00873 | 36932 ft | 506 kts | 43° |
| 2026-04-24 13:22 | 36.09888 | -114.94351 | 36883 ft | 506 kts | 43° |
| 2026-04-24 13:23 | 36.14543 | -114.87819 | 36880 ft | 506 kts | 43° |
| 2026-04-24 13:23 | 36.18664 | -114.80817 | 36846 ft | 515 kts | 64° |
| 2026-04-24 13:24 | 36.21307 | -114.72536 | 36840 ft | 519 kts | 66° |
| 2026-04-24 13:24 | 36.23887 | -114.64180 | 36835 ft | 519 kts | 66° |
| 2026-04-24 13:25 | 36.26433 | -114.55827 | 36839 ft | 519 kts | 66° |
| 2026-04-24 13:25 | 36.28962 | -114.47502 | 36830 ft | 519 kts | 66° |
| 2026-04-24 13:26 | 36.31497 | -114.39132 | 36837 ft | 519 kts | 66° |
| 2026-04-24 13:26 | 36.34026 | -114.30757 | 36845 ft | 519 kts | 66° |
| 2026-04-24 13:27 | 36.36549 | -114.22378 | 36839 ft | 518 kts | 66° |
| 2026-04-24 13:27 | 36.39048 | -114.14053 | 36841 ft | 518 kts | 66° |
| 2026-04-24 13:28 | 36.41555 | -114.05679 | 36857 ft | 518 kts | 67° |
| 2026-04-24 13:28 | 36.44055 | -113.97299 | 36858 ft | 517 kts | 67° |
| 2026-04-24 13:29 | 36.46548 | -113.88921 | 36861 ft | 518 kts | 67° |
| 2026-04-24 13:29 | 36.49025 | -113.80570 | 36862 ft | 518 kts | 67° |
| 2026-04-24 13:30 | 36.51509 | -113.72172 | 36862 ft | 518 kts | 67° |
| 2026-04-24 13:30 | 36.53986 | -113.63773 | 36871 ft | 518 kts | 67° |
| 2026-04-24 13:31 | 36.56121 | -113.56513 | 36878 ft | 517 kts | 67° |
| 2026-04-24 13:31 | 36.58588 | -113.48099 | 36893 ft | 517 kts | 67° |
| 2026-04-24 13:32 | 36.61047 | -113.39694 | 36905 ft | 517 kts | 67° |
| 2026-04-24 13:32 | 36.63495 | -113.31279 | 36917 ft | 517 kts | 67° |
| 2026-04-24 13:33 | 36.65939 | -113.22853 | 36941 ft | 517 kts | 67° |
| 2026-04-24 13:33 | 36.68358 | -113.14491 | 36967 ft | 517 kts | 67° |
| 2026-04-24 13:34 | 36.70785 | -113.06074 | 36989 ft | 517 kts | 67° |
| 2026-04-24 13:34 | 36.73208 | -112.97644 | 37004 ft | 516 kts | 67° |
| 2026-04-24 13:35 | 36.75444 | -112.89844 | 37009 ft | 516 kts | 68° |
| 2026-04-24 13:35 | 36.77814 | -112.81549 | 37008 ft | 516 kts | 68° |
| 2026-04-24 13:36 | 36.80245 | -112.73016 | 37001 ft | 516 kts | 68° |
| 2026-04-24 13:36 | 36.82634 | -112.64604 | 36989 ft | 516 kts | 68° |
| 2026-04-24 13:37 | 36.85025 | -112.56158 | 36982 ft | 516 kts | 68° |
| 2026-04-24 13:37 | 36.87410 | -112.47710 | 36977 ft | 516 kts | 68° |
| 2026-04-24 13:38 | 36.89770 | -112.39302 | 36976 ft | 516 kts | 68° |
| 2026-04-24 13:38 | 36.92141 | -112.30851 | 36970 ft | 516 kts | 68° |
| 2026-04-24 13:39 | 36.94513 | -112.22375 | 36966 ft | 516 kts | 68° |
| 2026-04-24 13:39 | 36.96874 | -112.13912 | 36956 ft | 516 kts | 68° |
| 2026-04-24 13:40 | 36.99236 | -112.05421 | 36946 ft | 516 kts | 68° |
| 2026-04-24 13:40 | 37.01569 | -111.97005 | 36938 ft | 516 kts | 68° |
| 2026-04-24 13:41 | 37.03915 | -111.88516 | 36925 ft | 516 kts | 68° |
| 2026-04-24 13:41 | 37.06254 | -111.80024 | 36924 ft | 516 kts | 68° |
| 2026-04-24 13:42 | 37.08587 | -111.71532 | 36931 ft | 516 kts | 68° |
| 2026-04-24 13:42 | 37.10894 | -111.63104 | 36939 ft | 516 kts | 68° |
| 2026-04-24 13:43 | 37.13217 | -111.54588 | 36925 ft | 516 kts | 68° |
| 2026-04-24 13:43 | 37.15531 | -111.46078 | 36937 ft | 516 kts | 68° |
| 2026-04-24 13:44 | 37.17840 | -111.37566 | 36910 ft | 516 kts | 68° |
| 2026-04-24 13:44 | 37.20130 | -111.29092 | 36906 ft | 517 kts | 68° |
| 2026-04-24 13:45 | 37.22423 | -111.20572 | 36849 ft | 518 kts | 69° |
| 2026-04-24 13:45 | 37.24723 | -111.11993 | 36907 ft | 518 kts | 68° |
| 2026-04-24 13:46 | 37.27011 | -111.03434 | 36875 ft | 517 kts | 68° |
| 2026-04-24 13:46 | 37.29282 | -110.94911 | 36888 ft | 518 kts | 68° |
| 2026-04-24 13:47 | 37.31562 | -110.86321 | 36913 ft | 518 kts | 69° |
| 2026-04-24 13:47 | 37.33835 | -110.77733 | 36896 ft | 518 kts | 69° |
| 2026-04-24 13:48 | 37.36106 | -110.69126 | 36903 ft | 519 kts | 69° |
| 2026-04-24 13:48 | 37.38353 | -110.60579 | 36909 ft | 519 kts | 69° |
| 2026-04-24 13:49 | 37.40611 | -110.51963 | 36912 ft | 519 kts | 69° |
| 2026-04-24 13:49 | 37.42865 | -110.43330 | 36910 ft | 519 kts | 69° |
| 2026-04-24 13:50 | 37.45111 | -110.34701 | 36907 ft | 519 kts | 69° |
| 2026-04-24 13:50 | 37.47353 | -110.26055 | 36903 ft | 519 kts | 69° |
| 2026-04-24 13:51 | 37.49574 | -110.17467 | 36907 ft | 520 kts | 69° |
| 2026-04-24 13:51 | 37.51793 | -110.08851 | 36907 ft | 520 kts | 69° |
| 2026-04-24 13:52 | 37.54011 | -110.00210 | 36904 ft | 520 kts | 69° |
| 2026-04-24 13:52 | 37.56233 | -109.91528 | 36910 ft | 520 kts | 69° |
| 2026-04-24 13:53 | 37.58428 | -109.82918 | 36952 ft | 520 kts | 69° |
| 2026-04-24 13:53 | 37.60635 | -109.74230 | 36970 ft | 520 kts | 69° |
| 2026-04-24 13:54 | 37.62837 | -109.65537 | 37013 ft | 520 kts | 69° |
| 2026-04-24 13:54 | 37.65031 | -109.56841 | 37039 ft | 520 kts | 69° |
| 2026-04-24 13:55 | 37.67205 | -109.48195 | 37036 ft | 520 kts | 69° |
| 2026-04-24 13:55 | 37.69386 | -109.39492 | 37021 ft | 520 kts | 69° |
| 2026-04-24 13:56 | 37.71562 | -109.30778 | 36997 ft | 520 kts | 69° |
| 2026-04-24 13:56 | 37.73730 | -109.22062 | 36971 ft | 520 kts | 69° |
| 2026-04-24 13:57 | 37.75877 | -109.13403 | 36949 ft | 520 kts | 69° |
| 2026-04-24 13:57 | 37.78031 | -109.04698 | 36930 ft | 520 kts | 69° |
| 2026-04-24 13:58 | 37.80187 | -108.95947 | 36942 ft | 520 kts | 70° |
| 2026-04-24 13:58 | 37.82853 | -108.87520 | 36954 ft | 516 kts | 62° |
| 2026-04-24 13:59 | 37.85735 | -108.79252 | 36963 ft | 516 kts | 62° |
| 2026-04-24 13:59 | 37.88637 | -108.70940 | 36949 ft | 516 kts | 62° |
| 2026-04-24 14:00 | 37.91534 | -108.62618 | 36957 ft | 517 kts | 62° |
| 2026-04-24 14:00 | 37.94427 | -108.54283 | 36957 ft | 517 kts | 62° |
| 2026-04-24 14:01 | 37.97295 | -108.45997 | 36953 ft | 517 kts | 62° |
| 2026-04-24 14:01 | 38.00180 | -108.37637 | 36954 ft | 517 kts | 62° |
| 2026-04-24 14:02 | 38.03060 | -108.29270 | 36989 ft | 517 kts | 62° |
| 2026-04-24 14:02 | 38.05914 | -108.20956 | 36993 ft | 518 kts | 62° |
| 2026-04-24 14:03 | 38.08775 | -108.12596 | 37053 ft | 517 kts | 63° |
| 2026-04-24 14:03 | 38.11636 | -108.04213 | 37059 ft | 517 kts | 62° |
| 2026-04-24 14:04 | 38.14487 | -107.95833 | 37067 ft | 517 kts | 63° |
| 2026-04-24 14:04 | 38.17332 | -107.87449 | 37050 ft | 516 kts | 63° |
| 2026-04-24 14:05 | 38.20150 | -107.79121 | 37032 ft | 516 kts | 63° |
| 2026-04-24 14:05 | 38.22973 | -107.70751 | 37005 ft | 515 kts | 63° |
| 2026-04-24 14:06 | 38.25791 | -107.62376 | 37000 ft | 515 kts | 63° |
| 2026-04-24 14:06 | 38.28586 | -107.54041 | 36988 ft | 513 kts | 63° |
| 2026-04-24 14:07 | 38.31368 | -107.45724 | 37018 ft | 515 kts | 63° |
| 2026-04-24 14:07 | 38.34165 | -107.37337 | 37020 ft | 514 kts | 63° |
| 2026-04-24 14:08 | 38.36954 | -107.28948 | 37053 ft | 514 kts | 63° |
| 2026-04-24 14:08 | 38.39737 | -107.20557 | 37085 ft | 514 kts | 63° |
| 2026-04-24 14:09 | 38.42499 | -107.12210 | 37110 ft | 514 kts | 64° |
| 2026-04-24 14:09 | 38.45316 | -107.03839 | 37126 ft | 512 kts | 59° |
| 2026-04-24 14:10 | 38.48582 | -106.95767 | 37135 ft | 512 kts | 58° |
| 2026-04-24 14:10 | 38.51873 | -106.87719 | 37131 ft | 512 kts | 58° |
| 2026-04-24 14:11 | 38.55139 | -106.79718 | 37128 ft | 511 kts | 58° |
| 2026-04-24 14:12 | 38.60059 | -106.67632 | 37090 ft | 510 kts | 58° |
| 2026-04-24 14:12 | 38.63332 | -106.59563 | 37062 ft | 511 kts | 59° |
| 2026-04-24 14:13 | 38.66591 | -106.51505 | 37013 ft | 510 kts | 59° |
| 2026-04-24 14:13 | 38.69823 | -106.43497 | 37021 ft | 510 kts | 59° |
| 2026-04-24 14:14 | 38.73065 | -106.35443 | 37017 ft | 509 kts | 59° |
| 2026-04-24 14:14 | 38.77920 | -106.23339 | 37049 ft | 508 kts | 59° |
| 2026-04-24 14:15 | 38.81122 | -106.15331 | 37072 ft | 508 kts | 59° |
| 2026-04-24 14:15 | 38.84331 | -106.07284 | 37052 ft | 507 kts | 59° |
| 2026-04-24 14:16 | 38.87536 | -105.99228 | 37041 ft | 507 kts | 59° |
| 2026-04-24 14:17 | 38.92341 | -105.87109 | 36987 ft | 507 kts | 59° |
| 2026-04-24 14:17 | 38.97103 | -105.75049 | 36935 ft | 507 kts | 59° |
| 2026-04-24 14:18 | 39.00286 | -105.66961 | 36916 ft | 507 kts | 59° |
| 2026-04-24 14:18 | 39.03461 | -105.58874 | 36904 ft | 507 kts | 59° |
| 2026-04-24 14:19 | 39.06610 | -105.50831 | 36901 ft | 507 kts | 59° |
| 2026-04-24 14:19 | 39.09774 | -105.42728 | 36895 ft | 507 kts | 59° |
| 2026-04-24 14:20 | 39.12935 | -105.34612 | 36881 ft | 507 kts | 60° |
| 2026-04-24 14:20 | 39.16098 | -105.26474 | 36866 ft | 508 kts | 60° |
| 2026-04-24 14:21 | 39.19127 | -105.18331 | 36863 ft | 510 kts | 68° |
| 2026-04-24 14:21 | 39.21437 | -105.09694 | 36882 ft | 512 kts | 68° |
| 2026-04-24 14:22 | 39.23747 | -105.00994 | 36896 ft | 513 kts | 69° |
| 2026-04-24 14:23 | 39.27185 | -104.87984 | 36891 ft | 513 kts | 69° |
| 2026-04-24 14:23 | 39.29478 | -104.79270 | 36895 ft | 513 kts | 69° |
| 2026-04-24 14:24 | 39.31766 | -104.70543 | 36895 ft | 513 kts | 69° |
| 2026-04-24 14:24 | 39.34046 | -104.61813 | 36891 ft | 513 kts | 69° |
| 2026-04-24 14:25 | 39.35936 | -104.54556 | 36884 ft | 513 kts | 69° |
| 2026-04-24 14:25 | 39.38577 | -104.44380 | 36868 ft | 513 kts | 69° |
| 2026-04-24 14:26 | 39.40458 | -104.37106 | 36862 ft | 513 kts | 69° |
| 2026-04-24 14:26 | 39.42713 | -104.28355 | 36857 ft | 513 kts | 69° |
| 2026-04-24 14:27 | 39.45328 | -104.18168 | 36852 ft | 513 kts | 69° |
| 2026-04-24 14:27 | 39.47571 | -104.09399 | 36852 ft | 513 kts | 69° |
| 2026-04-24 14:28 | 39.49805 | -104.00635 | 36859 ft | 512 kts | 69° |
| 2026-04-24 14:28 | 39.51654 | -103.93355 | 36869 ft | 512 kts | 70° |
| 2026-04-24 14:29 | 39.54229 | -103.83181 | 36890 ft | 511 kts | 70° |
| 2026-04-24 14:29 | 39.56436 | -103.74426 | 36888 ft | 510 kts | 70° |
| 2026-04-24 14:30 | 39.58262 | -103.67160 | 36884 ft | 510 kts | 70° |
| 2026-04-24 14:30 | 39.60448 | -103.58430 | 36871 ft | 509 kts | 70° |
| 2026-04-24 14:31 | 39.62629 | -103.49689 | 36867 ft | 509 kts | 70° |
| 2026-04-24 14:31 | 39.65150 | -103.39549 | 36863 ft | 508 kts | 70° |
| 2026-04-24 14:32 | 39.66943 | -103.32309 | 36863 ft | 507 kts | 70° |
| 2026-04-24 14:32 | 39.69096 | -103.23587 | 36861 ft | 507 kts | 71° |
| 2026-04-24 14:33 | 39.71239 | -103.14872 | 36858 ft | 506 kts | 71° |
| 2026-04-24 14:33 | 39.73374 | -103.06158 | 36859 ft | 506 kts | 71° |
| 2026-04-24 14:34 | 39.75488 | -102.97501 | 36857 ft | 506 kts | 71° |
| 2026-04-24 14:34 | 39.77610 | -102.88779 | 36857 ft | 506 kts | 71° |
| 2026-04-24 14:35 | 39.79723 | -102.80060 | 36859 ft | 506 kts | 71° |
| 2026-04-24 14:35 | 39.81826 | -102.71351 | 36858 ft | 505 kts | 71° |
| 2026-04-24 14:36 | 39.83910 | -102.62686 | 36864 ft | 505 kts | 71° |
| 2026-04-24 14:36 | 39.85989 | -102.54007 | 36864 ft | 505 kts | 71° |
| 2026-04-24 14:37 | 39.88076 | -102.45272 | 36869 ft | 505 kts | 71° |
| 2026-04-24 14:37 | 39.90151 | -102.36547 | 36873 ft | 505 kts | 71° |
| 2026-04-24 14:38 | 39.92207 | -102.27873 | 36878 ft | 504 kts | 71° |
| 2026-04-24 14:38 | 39.94266 | -102.19150 | 36889 ft | 504 kts | 71° |
| 2026-04-24 14:39 | 39.96323 | -102.10406 | 36919 ft | 504 kts | 72° |
| 2026-04-24 14:39 | 39.98367 | -102.01683 | 36937 ft | 503 kts | 72° |
| 2026-04-24 14:40 | 40.00390 | -101.93015 | 36942 ft | 503 kts | 72° |
| 2026-04-24 14:40 | 40.02423 | -101.84275 | 36946 ft | 503 kts | 72° |
| 2026-04-24 14:41 | 40.04445 | -101.75543 | 36944 ft | 503 kts | 72° |
| 2026-04-24 14:41 | 40.06466 | -101.66797 | 36938 ft | 503 kts | 72° |
| 2026-04-24 14:42 | 40.08463 | -101.58124 | 36931 ft | 503 kts | 72° |
| 2026-04-24 14:42 | 40.10473 | -101.49362 | 36937 ft | 503 kts | 72° |
| 2026-04-24 14:43 | 40.12472 | -101.40611 | 36942 ft | 503 kts | 72° |
| 2026-04-24 14:43 | 40.14131 | -101.31846 | 36929 ft | 501 kts | 89° |
| 2026-04-24 14:44 | 40.14645 | -101.22754 | 36993 ft | 503 kts | 84° |
| 2026-04-24 14:44 | 40.15461 | -101.13675 | 36978 ft | 503 kts | 83° |
| 2026-04-24 14:45 | 40.16299 | -101.04603 | 36987 ft | 503 kts | 83° |
| 2026-04-24 14:45 | 40.17134 | -100.95515 | 36994 ft | 503 kts | 84° |
| 2026-04-24 14:46 | 40.17956 | -100.86499 | 37007 ft | 503 kts | 84° |
| 2026-04-24 14:46 | 40.18777 | -100.77411 | 37016 ft | 503 kts | 84° |
| 2026-04-24 14:47 | 40.19589 | -100.68331 | 37025 ft | 503 kts | 84° |
| 2026-04-24 14:47 | 40.20447 | -100.59250 | 37023 ft | 503 kts | 79° |
| 2026-04-24 14:48 | 40.21888 | -100.50300 | 37026 ft | 503 kts | 78° |
| 2026-04-24 14:48 | 40.23341 | -100.41431 | 37020 ft | 503 kts | 78° |
| 2026-04-24 14:49 | 40.24806 | -100.32462 | 37021 ft | 503 kts | 78° |
| 2026-04-24 14:49 | 40.26260 | -100.23507 | 37026 ft | 503 kts | 78° |
| 2026-04-24 14:50 | 40.27710 | -100.14538 | 37027 ft | 503 kts | 78° |
| 2026-04-24 14:50 | 40.29142 | -100.05632 | 37027 ft | 503 kts | 78° |
| 2026-04-24 14:51 | 40.30577 | -99.96660 | 37019 ft | 503 kts | 79° |
| 2026-04-24 14:51 | 40.31997 | -99.87735 | 37011 ft | 503 kts | 79° |
| 2026-04-24 14:52 | 40.33418 | -99.78757 | 36999 ft | 504 kts | 79° |
| 2026-04-24 14:52 | 40.34826 | -99.69818 | 36996 ft | 504 kts | 79° |
| 2026-04-24 14:53 | 40.36234 | -99.60827 | 37001 ft | 504 kts | 79° |
| 2026-04-24 14:53 | 40.37633 | -99.51844 | 37011 ft | 504 kts | 79° |
| 2026-04-24 14:54 | 40.39029 | -99.42836 | 37015 ft | 504 kts | 79° |
| 2026-04-24 14:54 | 40.40417 | -99.33827 | 37012 ft | 503 kts | 79° |
| 2026-04-24 14:55 | 40.41788 | -99.24888 | 37018 ft | 503 kts | 79° |
| 2026-04-24 14:55 | 40.43109 | -99.15873 | 37007 ft | 503 kts | 82° |
| 2026-04-24 14:56 | 40.44214 | -99.06805 | 37005 ft | 503 kts | 82° |
| 2026-04-24 14:56 | 40.45338 | -98.97747 | 37001 ft | 503 kts | 82° |
| 2026-04-24 14:57 | 40.46447 | -98.88768 | 36995 ft | 502 kts | 82° |
| 2026-04-24 14:57 | 40.47559 | -98.79693 | 36990 ft | 502 kts | 82° |
| 2026-04-24 14:58 | 40.48661 | -98.70644 | 36993 ft | 502 kts | 82° |
| 2026-04-24 14:58 | 40.49759 | -98.61570 | 37003 ft | 502 kts | 82° |
| 2026-04-24 14:59 | 40.50840 | -98.52572 | 37006 ft | 502 kts | 83° |
| 2026-04-24 14:59 | 40.51922 | -98.43505 | 37012 ft | 502 kts | 83° |
| 2026-04-24 15:00 | 40.52997 | -98.34434 | 37003 ft | 502 kts | 83° |
| 2026-04-24 15:00 | 40.54064 | -98.25370 | 37002 ft | 502 kts | 83° |
| 2026-04-24 15:01 | 40.55125 | -98.16300 | 36987 ft | 502 kts | 83° |
| 2026-04-24 15:01 | 40.56170 | -98.07297 | 36982 ft | 502 kts | 83° |
| 2026-04-24 15:02 | 40.57217 | -97.98231 | 36966 ft | 502 kts | 83° |
| 2026-04-24 15:02 | 40.58315 | -97.89159 | 36975 ft | 502 kts | 83° |
| 2026-04-24 15:03 | 40.59419 | -97.80103 | 36969 ft | 502 kts | 83° |
| 2026-04-24 15:03 | 40.60515 | -97.71041 | 36969 ft | 502 kts | 83° |
| 2026-04-24 15:04 | 40.61597 | -97.62032 | 36964 ft | 502 kts | 83° |
| 2026-04-24 15:04 | 40.62680 | -97.52959 | 36992 ft | 502 kts | 83° |
| 2026-04-24 15:05 | 40.63757 | -97.43867 | 36992 ft | 502 kts | 83° |
| 2026-04-24 15:05 | 40.64824 | -97.34801 | 36989 ft | 501 kts | 83° |
| 2026-04-24 15:06 | 40.65879 | -97.25773 | 36984 ft | 501 kts | 84° |
| 2026-04-24 15:06 | 40.66927 | -97.16741 | 36984 ft | 501 kts | 84° |
| 2026-04-24 15:07 | 40.67974 | -97.07657 | 36982 ft | 501 kts | 84° |
| 2026-04-24 15:07 | 40.69005 | -96.98572 | 36987 ft | 501 kts | 85° |
| 2026-04-24 15:08 | 40.69868 | -96.89537 | 36990 ft | 501 kts | 85° |
| 2026-04-24 15:08 | 40.70745 | -96.80424 | 36992 ft | 501 kts | 85° |
| 2026-04-24 15:09 | 40.71615 | -96.71327 | 36990 ft | 501 kts | 86° |
| 2026-04-24 15:09 | 40.72481 | -96.62196 | 36982 ft | 501 kts | 86° |
| 2026-04-24 15:10 | 40.73331 | -96.53155 | 36971 ft | 501 kts | 86° |
| 2026-04-24 15:10 | 40.74185 | -96.43997 | 36960 ft | 501 kts | 86° |
| 2026-04-24 15:11 | 40.75029 | -96.34878 | 36937 ft | 501 kts | 86° |
| 2026-04-24 15:11 | 40.75865 | -96.25745 | 36934 ft | 501 kts | 86° |
| 2026-04-24 15:12 | 40.76688 | -96.16679 | 36942 ft | 501 kts | 86° |
| 2026-04-24 15:12 | 40.77920 | -96.02966 | 36954 ft | 502 kts | 87° |
| 2026-04-24 15:13 | 40.78755 | -95.93830 | 36959 ft | 502 kts | 86° |
| 2026-04-24 15:13 | 40.79632 | -95.84687 | 36957 ft | 502 kts | 86° |
| 2026-04-24 15:14 | 40.80491 | -95.75604 | 36947 ft | 503 kts | 86° |
| 2026-04-24 15:14 | 40.81352 | -95.66422 | 36930 ft | 503 kts | 86° |
| 2026-04-24 15:15 | 40.82204 | -95.57257 | 36938 ft | 504 kts | 86° |
| 2026-04-24 15:15 | 40.83055 | -95.48070 | 36940 ft | 504 kts | 87° |
| 2026-04-24 15:16 | 40.83894 | -95.38944 | 36939 ft | 504 kts | 87° |
| 2026-04-24 15:16 | 40.84731 | -95.29750 | 36934 ft | 504 kts | 87° |
| 2026-04-24 15:17 | 40.85561 | -95.20552 | 36944 ft | 504 kts | 87° |
| 2026-04-24 15:17 | 40.86384 | -95.11350 | 36936 ft | 505 kts | 88° |
| 2026-04-24 15:18 | 40.87194 | -95.02200 | 36935 ft | 504 kts | 88° |
| 2026-04-24 15:18 | 40.88003 | -94.92996 | 36928 ft | 504 kts | 88° |
| 2026-04-24 15:19 | 40.88687 | -94.83798 | 36909 ft | 498 kts | 97° |
| 2026-04-24 15:19 | 40.88380 | -94.74694 | 36899 ft | 496 kts | 98° |
| 2026-04-24 15:20 | 40.88079 | -94.65645 | 36896 ft | 496 kts | 98° |
| 2026-04-24 15:20 | 40.87765 | -94.56544 | 36906 ft | 496 kts | 99° |
| 2026-04-24 15:21 | 40.87446 | -94.47475 | 36911 ft | 495 kts | 99° |
| 2026-04-24 15:21 | 40.87166 | -94.39699 | 36916 ft | 495 kts | 99° |
| 2026-04-24 15:22 | 40.86865 | -94.31502 | 36911 ft | 494 kts | 99° |
| 2026-04-24 15:23 | 40.86355 | -94.17966 | 36901 ft | 494 kts | 100° |
| 2026-04-24 15:23 | 40.85827 | -94.04376 | 36885 ft | 494 kts | 101° |
| 2026-04-24 15:25 | 40.84996 | -93.83758 | 36902 ft | 494 kts | 101° |
| 2026-04-24 15:26 | 40.83978 | -93.59621 | 36879 ft | 494 kts | 102° |
| 2026-04-24 15:27 | 40.83544 | -93.32251 | 36888 ft | 497 kts | 99° |
| 2026-04-24 15:29 | 40.83093 | -93.06127 | 36890 ft | 496 kts | 100° |
| 2026-04-24 15:31 | 40.82466 | -92.74416 | 36890 ft | 493 kts | 101° |
| 2026-04-24 15:33 | 40.81649 | -92.38423 | 36853 ft | 489 kts | 101° |
| 2026-04-24 15:34 | 40.81086 | -92.16093 | 36858 ft | 487 kts | 102° |
| 2026-04-24 15:35 | 40.80592 | -91.93801 | 36861 ft | 488 kts | 101° |
| 2026-04-24 15:36 | 40.80449 | -91.84871 | 36857 ft | 488 kts | 101° |
| 2026-04-24 15:36 | 40.80220 | -91.71492 | 36861 ft | 488 kts | 101° |
| 2026-04-24 15:37 | 40.80059 | -91.62601 | 36864 ft | 488 kts | 100° |
| 2026-04-24 15:37 | 40.79889 | -91.53655 | 36867 ft | 488 kts | 100° |
| 2026-04-24 15:38 | 40.79714 | -91.44714 | 36867 ft | 488 kts | 100° |
| 2026-04-24 15:38 | 40.79531 | -91.35759 | 36852 ft | 488 kts | 100° |
| 2026-04-24 15:39 | 40.79341 | -91.26813 | 36848 ft | 488 kts | 100° |
| 2026-04-24 15:39 | 40.79146 | -91.17917 | 36859 ft | 488 kts | 100° |
| 2026-04-24 15:40 | 40.78942 | -91.08974 | 36863 ft | 488 kts | 99° |
| 2026-04-24 15:40 | 40.78732 | -91.00040 | 36853 ft | 488 kts | 99° |
| 2026-04-24 15:41 | 40.78520 | -90.91293 | 36842 ft | 488 kts | 99° |
| 2026-04-24 15:41 | 40.78293 | -90.82235 | 36832 ft | 487 kts | 99° |
| 2026-04-24 15:42 | 40.78062 | -90.73288 | 36834 ft | 488 kts | 99° |
| 2026-04-24 15:42 | 40.77824 | -90.64348 | 36838 ft | 488 kts | 99° |
| 2026-04-24 15:43 | 40.77578 | -90.55389 | 36847 ft | 488 kts | 99° |
| 2026-04-24 15:43 | 40.77328 | -90.46492 | 36850 ft | 488 kts | 99° |
| 2026-04-24 15:44 | 40.77069 | -90.37537 | 36850 ft | 489 kts | 98° |
| 2026-04-24 15:44 | 40.76803 | -90.28579 | 36845 ft | 489 kts | 98° |
| 2026-04-24 15:45 | 40.76530 | -90.19619 | 36830 ft | 489 kts | 98° |
| 2026-04-24 15:45 | 40.76250 | -90.10667 | 36812 ft | 489 kts | 98° |
| 2026-04-24 15:46 | 40.75965 | -90.01772 | 36820 ft | 489 kts | 98° |
| 2026-04-24 15:46 | 40.75672 | -89.92842 | 36834 ft | 488 kts | 98° |
| 2026-04-24 15:47 | 40.75372 | -89.83902 | 36824 ft | 488 kts | 98° |
| 2026-04-24 15:47 | 40.75064 | -89.74948 | 36844 ft | 488 kts | 98° |
| 2026-04-24 15:48 | 40.74750 | -89.66017 | 36839 ft | 488 kts | 98° |
| 2026-04-24 15:48 | 40.74433 | -89.57119 | 36835 ft | 488 kts | 98° |
| 2026-04-24 15:49 | 40.74107 | -89.48184 | 36834 ft | 488 kts | 98° |
| 2026-04-24 15:49 | 40.73775 | -89.39253 | 36825 ft | 488 kts | 99° |
| 2026-04-24 15:50 | 40.73149 | -89.30382 | 36822 ft | 486 kts | 101° |
| 2026-04-24 15:50 | 40.72536 | -89.21582 | 36813 ft | 485 kts | 101° |
| 2026-04-24 15:51 | 40.71917 | -89.12723 | 36819 ft | 485 kts | 101° |
| 2026-04-24 15:51 | 40.71297 | -89.03939 | 36828 ft | 485 kts | 101° |
| 2026-04-24 15:52 | 40.70669 | -88.95121 | 36828 ft | 484 kts | 101° |
| 2026-04-24 15:52 | 40.70031 | -88.86268 | 36823 ft | 484 kts | 101° |
| 2026-04-24 15:53 | 40.69393 | -88.77509 | 36823 ft | 484 kts | 101° |
| 2026-04-24 15:53 | 40.68744 | -88.68693 | 36811 ft | 483 kts | 101° |
| 2026-04-24 15:54 | 40.68088 | -88.59880 | 36811 ft | 484 kts | 101° |
| 2026-04-24 15:54 | 40.67425 | -88.51056 | 36808 ft | 484 kts | 101° |
| 2026-04-24 15:55 | 40.66754 | -88.42228 | 36802 ft | 485 kts | 101° |
| 2026-04-24 15:55 | 40.66081 | -88.33464 | 36795 ft | 485 kts | 101° |
| 2026-04-24 15:56 | 40.65396 | -88.24617 | 36789 ft | 486 kts | 101° |
| 2026-04-24 15:56 | 40.64702 | -88.15755 | 36788 ft | 486 kts | 101° |
| 2026-04-24 15:57 | 40.64010 | -88.06992 | 36786 ft | 486 kts | 101° |
| 2026-04-24 15:57 | 40.63307 | -87.98201 | 36794 ft | 486 kts | 101° |
| 2026-04-24 15:58 | 40.62594 | -87.89352 | 36783 ft | 487 kts | 100° |
| 2026-04-24 15:58 | 40.61873 | -87.80493 | 36789 ft | 487 kts | 100° |
| 2026-04-24 15:59 | 40.61150 | -87.71684 | 36786 ft | 488 kts | 100° |
| 2026-04-24 15:59 | 40.60413 | -87.62808 | 36790 ft | 488 kts | 100° |
| 2026-04-24 16:00 | 40.59670 | -87.53932 | 36784 ft | 489 kts | 100° |
| 2026-04-24 16:00 | 40.58918 | -87.45037 | 36785 ft | 490 kts | 100° |
| 2026-04-24 16:01 | 40.58159 | -87.36135 | 36785 ft | 490 kts | 99° |
| 2026-04-24 16:01 | 40.57399 | -87.27299 | 36795 ft | 490 kts | 99° |
| 2026-04-24 16:02 | 40.56626 | -87.18376 | 36802 ft | 490 kts | 99° |
| 2026-04-24 16:02 | 40.55866 | -87.09682 | 36814 ft | 491 kts | 99° |
| 2026-04-24 16:03 | 40.55181 | -87.00750 | 36822 ft | 492 kts | 98° |
| 2026-04-24 16:03 | 40.54499 | -86.91809 | 36817 ft | 491 kts | 98° |
| 2026-04-24 16:04 | 40.53816 | -86.82957 | 36821 ft | 489 kts | 98° |
| 2026-04-24 16:04 | 40.53124 | -86.74071 | 36816 ft | 488 kts | 97° |
| 2026-04-24 16:05 | 40.52089 | -86.60958 | 36809 ft | 486 kts | 97° |
| 2026-04-24 16:06 | 40.51035 | -86.47788 | 36814 ft | 485 kts | 97° |
| 2026-04-24 16:07 | 40.49965 | -86.34612 | 36802 ft | 484 kts | 97° |
| 2026-04-24 16:07 | 40.48885 | -86.21502 | 36834 ft | 482 kts | 97° |
| 2026-04-24 16:08 | 40.47795 | -86.08456 | 36841 ft | 481 kts | 96° |
| 2026-04-24 16:09 | 40.46684 | -85.95332 | 37098 ft | 481 kts | 96° |
| 2026-04-24 16:09 | 40.45938 | -85.86623 | 37102 ft | 480 kts | 96° |
| 2026-04-24 16:10 | 40.44811 | -85.73620 | 36859 ft | 480 kts | 96° |
| 2026-04-24 16:11 | 40.44056 | -85.64994 | 36862 ft | 480 kts | 96° |
| 2026-04-24 16:11 | 40.43290 | -85.56314 | 36858 ft | 479 kts | 96° |
| 2026-04-24 16:12 | 40.42125 | -85.43270 | 36860 ft | 479 kts | 96° |
| 2026-04-24 16:13 | 40.40952 | -85.30300 | 36860 ft | 479 kts | 96° |
| 2026-04-24 16:14 | 40.39368 | -85.13040 | 36867 ft | 477 kts | 96° |
| 2026-04-24 16:14 | 40.38162 | -85.00093 | 36868 ft | 477 kts | 95° |
| 2026-04-24 16:15 | 40.36948 | -84.87222 | 36866 ft | 476 kts | 95° |
| 2026-04-24 16:16 | 40.35724 | -84.74386 | 36855 ft | 475 kts | 95° |
| 2026-04-24 16:17 | 40.33651 | -84.52995 | 36874 ft | 473 kts | 95° |
| 2026-04-24 16:18 | 40.31964 | -84.35897 | 36872 ft | 473 kts | 95° |
| 2026-04-24 16:19 | 40.30691 | -84.23127 | 36871 ft | 473 kts | 95° |
| 2026-04-24 16:20 | 40.29405 | -84.10370 | 36883 ft | 473 kts | 95° |
| 2026-04-24 16:20 | 40.28218 | -83.97554 | 36897 ft | 472 kts | 94° |
| 2026-04-24 16:21 | 40.27097 | -83.84941 | 36906 ft | 472 kts | 94° |
| 2026-04-24 16:22 | 40.26329 | -83.76400 | 36902 ft | 472 kts | 94° |
| 2026-04-24 16:22 | 40.25170 | -83.63641 | 36895 ft | 473 kts | 94° |
| 2026-04-24 16:23 | 40.24387 | -83.55100 | 36894 ft | 473 kts | 94° |
| 2026-04-24 16:24 | 40.23198 | -83.42278 | 36893 ft | 473 kts | 95° |
| 2026-04-24 16:24 | 40.22400 | -83.33760 | 36901 ft | 473 kts | 95° |
| 2026-04-24 16:25 | 40.21594 | -83.25303 | 36897 ft | 473 kts | 96° |
| 2026-04-24 16:25 | 40.20832 | -83.21087 | 36891 ft | 475 kts | 108° |
| 2026-04-24 16:25 | 40.19687 | -83.17044 | 36901 ft | 476 kts | 107° |
| 2026-04-24 16:26 | 40.16535 | -83.04739 | 36909 ft | 476 kts | 107° |
| 2026-04-24 16:27 | 40.13457 | -82.92627 | 36908 ft | 475 kts | 107° |
| 2026-04-24 16:27 | 40.11368 | -82.84435 | 36913 ft | 475 kts | 107° |
| 2026-04-24 16:28 | 40.09278 | -82.76264 | 36910 ft | 475 kts | 107° |
| 2026-04-24 16:28 | 40.06126 | -82.63996 | 36914 ft | 474 kts | 107° |
| 2026-04-24 16:29 | 40.04034 | -82.55890 | 36914 ft | 474 kts | 107° |
| 2026-04-24 16:30 | 39.99813 | -82.39613 | 36904 ft | 473 kts | 107° |
| 2026-04-24 16:30 | 39.97697 | -82.31493 | 36910 ft | 472 kts | 107° |
| 2026-04-24 16:31 | 39.95581 | -82.23400 | 36912 ft | 472 kts | 108° |
| 2026-04-24 16:31 | 39.93473 | -82.15363 | 36918 ft | 472 kts | 108° |
| 2026-04-24 16:32 | 39.91345 | -82.07278 | 36917 ft | 472 kts | 108° |
| 2026-04-24 16:32 | 39.89214 | -81.99210 | 36924 ft | 472 kts | 108° |
| 2026-04-24 16:33 | 39.87076 | -81.91138 | 36929 ft | 472 kts | 108° |
| 2026-04-24 16:33 | 39.84933 | -81.83075 | 36925 ft | 472 kts | 108° |
| 2026-04-24 16:34 | 39.82797 | -81.75062 | 36917 ft | 472 kts | 108° |
| 2026-04-24 16:34 | 39.80640 | -81.66997 | 36907 ft | 472 kts | 108° |
| 2026-04-24 16:35 | 39.78478 | -81.58942 | 36916 ft | 472 kts | 108° |
| 2026-04-24 16:35 | 39.76310 | -81.50884 | 36903 ft | 472 kts | 108° |
| 2026-04-24 16:36 | 39.74150 | -81.42889 | 36904 ft | 472 kts | 108° |
| 2026-04-24 16:36 | 39.71988 | -81.34906 | 36905 ft | 472 kts | 108° |
| 2026-04-24 16:37 | 39.69803 | -81.26866 | 36903 ft | 472 kts | 108° |
| 2026-04-24 16:37 | 39.67615 | -81.18840 | 36910 ft | 472 kts | 108° |
| 2026-04-24 16:38 | 39.65420 | -81.10814 | 36913 ft | 472 kts | 108° |
| 2026-04-24 16:38 | 39.63243 | -81.02878 | 36912 ft | 472 kts | 108° |
| 2026-04-24 16:39 | 39.61052 | -80.94919 | 36914 ft | 472 kts | 108° |
| 2026-04-24 16:39 | 39.58840 | -80.86904 | 36907 ft | 472 kts | 108° |
| 2026-04-24 16:40 | 39.56620 | -80.78886 | 36909 ft | 472 kts | 108° |
| 2026-04-24 16:40 | 39.54397 | -80.70887 | 36912 ft | 472 kts | 108° |
| 2026-04-24 16:41 | 39.52180 | -80.62929 | 36911 ft | 472 kts | 108° |
| 2026-04-24 16:41 | 39.49947 | -80.54940 | 36911 ft | 472 kts | 108° |
| 2026-04-24 16:42 | 39.47702 | -80.46933 | 36925 ft | 473 kts | 108° |
| 2026-04-24 16:42 | 39.45457 | -80.38951 | 36934 ft | 473 kts | 108° |
| 2026-04-24 16:43 | 39.43203 | -80.30962 | 36832 ft | 473 kts | 108° |
| 2026-04-24 16:43 | 39.42093 | -80.27035 | 36546 ft | 467 kts | 108° |
| 2026-04-24 16:43 | 39.40983 | -80.23115 | 36178 ft | 460 kts | 108° |
| 2026-04-24 16:44 | 39.39886 | -80.19251 | 35687 ft | 457 kts | 108° |
| 2026-04-24 16:44 | 39.38793 | -80.15398 | 35150 ft | 455 kts | 108° |
| 2026-04-24 16:44 | 39.37701 | -80.11561 | 34629 ft | 454 kts | 108° |
| 2026-04-24 16:44 | 39.36615 | -80.07749 | 34139 ft | 452 kts | 108° |
| 2026-04-24 16:45 | 39.35529 | -80.03944 | 33582 ft | 450 kts | 108° |
| 2026-04-24 16:45 | 39.34466 | -80.00221 | 33047 ft | 447 kts | 108° |
| 2026-04-24 16:45 | 39.33390 | -79.96460 | 32539 ft | 444 kts | 108° |
| 2026-04-24 16:45 | 39.32322 | -79.92731 | 32060 ft | 441 kts | 108° |
| 2026-04-24 16:46 | 39.31257 | -79.89022 | 31578 ft | 439 kts | 108° |
| 2026-04-24 16:46 | 39.30202 | -79.85349 | 31097 ft | 436 kts | 108° |
| 2026-04-24 16:46 | 39.29325 | -79.81641 | 30755 ft | 425 kts | 95° |
| 2026-04-24 16:46 | 39.29125 | -79.77908 | 30584 ft | 412 kts | 90° |
| 2026-04-24 16:47 | 39.28836 | -79.74285 | 30577 ft | 397 kts | 93° |
| 2026-04-24 16:47 | 39.28543 | -79.70807 | 30593 ft | 382 kts | 92° |
| 2026-04-24 16:47 | 39.27966 | -79.64032 | 30588 ft | 390 kts | 93° |
| 2026-04-24 16:48 | 39.27352 | -79.56903 | 30575 ft | 407 kts | 92° |
| 2026-04-24 16:48 | 39.26767 | -79.49623 | 30303 ft | 407 kts | 92° |
| 2026-04-24 16:49 | 39.26472 | -79.45997 | 29967 ft | 405 kts | 92° |
| 2026-04-24 16:49 | 39.26180 | -79.42408 | 29517 ft | 401 kts | 92° |
| 2026-04-24 16:49 | 39.25888 | -79.38847 | 29143 ft | 397 kts | 92° |
| 2026-04-24 16:49 | 39.25603 | -79.35370 | 28801 ft | 396 kts | 93° |
| 2026-04-24 16:50 | 39.25406 | -79.32984 | 28571 ft | 395 kts | 93° |
| 2026-04-24 16:50 | 39.25022 | -79.28331 | 28110 ft | 393 kts | 93° |
| 2026-04-24 16:50 | 39.24728 | -79.24791 | 27730 ft | 404 kts | 93° |
| 2026-04-24 16:50 | 39.24419 | -79.21124 | 27268 ft | 418 kts | 93° |
| 2026-04-24 16:51 | 39.24100 | -79.17358 | 26930 ft | 426 kts | 94° |
| 2026-04-24 16:51 | 39.23776 | -79.13536 | 26594 ft | 430 kts | 94° |
| 2026-04-24 16:51 | 39.23449 | -79.09715 | 26238 ft | 429 kts | 94° |
| 2026-04-24 16:51 | 39.23123 | -79.05900 | 25857 ft | 428 kts | 94° |
| 2026-04-24 16:52 | 39.22802 | -79.02160 | 25491 ft | 425 kts | 94° |
| 2026-04-24 16:52 | 39.22476 | -78.98380 | 25117 ft | 423 kts | 94° |
| 2026-04-24 16:52 | 39.22126 | -78.94625 | 24681 ft | 420 kts | 95° |
| 2026-04-24 16:52 | 39.21768 | -78.90908 | 24281 ft | 415 kts | 95° |
| 2026-04-24 16:53 | 39.21415 | -78.87227 | 23898 ft | 412 kts | 95° |
| 2026-04-24 16:53 | 39.21063 | -78.83563 | 23508 ft | 413 kts | 95° |
| 2026-04-24 16:53 | 39.20710 | -78.79893 | 23056 ft | 411 kts | 95° |
| 2026-04-24 16:53 | 39.20357 | -78.76249 | 22639 ft | 408 kts | 95° |
| 2026-04-24 16:54 | 39.20005 | -78.72625 | 22166 ft | 406 kts | 95° |
| 2026-04-24 16:54 | 39.19651 | -78.69020 | 21592 ft | 406 kts | 95° |
| 2026-04-24 16:54 | 39.19300 | -78.65455 | 21090 ft | 405 kts | 95° |
| 2026-04-24 16:54 | 39.18947 | -78.61868 | 20569 ft | 404 kts | 95° |
| 2026-04-24 16:55 | 39.18592 | -78.58279 | 20039 ft | 403 kts | 95° |
| 2026-04-24 16:55 | 39.18237 | -78.54708 | 19514 ft | 402 kts | 95° |
| 2026-04-24 16:55 | 39.17881 | -78.51126 | 18980 ft | 402 kts | 95° |
| 2026-04-24 16:55 | 39.17523 | -78.47553 | 18448 ft | 402 kts | 96° |
| 2026-04-24 16:56 | 39.17166 | -78.43984 | 17886 ft | 402 kts | 96° |
| 2026-04-24 16:56 | 39.16807 | -78.40414 | 17318 ft | 401 kts | 96° |
| 2026-04-24 16:56 | 39.16437 | -78.36911 | 16835 ft | 398 kts | 99° |
| 2026-04-24 16:56 | 39.15668 | -78.33516 | 16546 ft | 391 kts | 107° |
| 2026-04-24 16:57 | 39.14841 | -78.30216 | 16311 ft | 382 kts | 107° |
| 2026-04-24 16:57 | 39.14041 | -78.26999 | 16090 ft | 374 kts | 107° |
| 2026-04-24 16:57 | 39.13252 | -78.23827 | 15789 ft | 372 kts | 107° |
| 2026-04-24 16:57 | 39.12464 | -78.20657 | 15491 ft | 372 kts | 107° |
| 2026-04-24 16:58 | 39.11675 | -78.17489 | 15180 ft | 371 kts | 107° |
| 2026-04-24 16:58 | 39.10889 | -78.14335 | 14871 ft | 370 kts | 107° |
| 2026-04-24 16:58 | 39.10102 | -78.11197 | 14565 ft | 368 kts | 108° |
| 2026-04-24 16:58 | 39.09303 | -78.08064 | 14231 ft | 366 kts | 108° |
| 2026-04-24 16:59 | 39.08522 | -78.04996 | 13950 ft | 366 kts | 108° |
| 2026-04-24 16:59 | 39.07731 | -78.01895 | 13657 ft | 365 kts | 108° |
| 2026-04-24 16:59 | 39.06161 | -77.95752 | 12968 ft | 357 kts | 108° |
| 2026-04-24 17:00 | 39.05390 | -77.92746 | 12688 ft | 351 kts | 108° |
| 2026-04-24 17:00 | 39.03879 | -77.86860 | 12119 ft | 342 kts | 108° |
| 2026-04-24 17:00 | 39.03136 | -77.83975 | 11814 ft | 338 kts | 108° |
| 2026-04-24 17:01 | 39.01689 | -77.78363 | 11274 ft | 328 kts | 108° |
| 2026-04-24 17:01 | 39.00976 | -77.75599 | 11010 ft | 324 kts | 108° |
| 2026-04-24 17:02 | 38.99794 | -77.71029 | 10538 ft | 318 kts | 108° |
| 2026-04-24 17:02 | 38.98881 | -77.67503 | 10212 ft | 312 kts | 108° |
| 2026-04-24 17:02 | 38.98148 | -77.64884 | 9943 ft | 309 kts | 114° |
| 2026-04-24 17:02 | 38.97255 | -77.62402 | 9683 ft | 305 kts | 115° |
| 2026-04-24 17:03 | 38.95810 | -77.58331 | 9258 ft | 297 kts | 114° |
| 2026-04-24 17:03 | 38.94697 | -77.55153 | 8948 ft | 294 kts | 114° |
| 2026-04-24 17:03 | 38.93859 | -77.52753 | 8711 ft | 294 kts | 114° |
| 2026-04-24 17:04 | 38.93024 | -77.50357 | 8471 ft | 294 kts | 114° |
| 2026-04-24 17:04 | 38.91644 | -77.46397 | 8113 ft | 292 kts | 114° |
| 2026-04-24 17:04 | 38.90741 | -77.44065 | 7864 ft | 293 kts | 120° |
| 2026-04-24 17:05 | 38.89730 | -77.41778 | 7535 ft | 294 kts | 119° |
| 2026-04-24 17:05 | 38.88765 | -77.39570 | 7236 ft | 293 kts | 119° |
| 2026-04-24 17:05 | 38.86467 | -77.34264 | 6536 ft | 293 kts | 118° |
| 2026-04-24 17:06 | 38.85479 | -77.31976 | 6242 ft | 294 kts | 118° |
| 2026-04-24 17:06 | 38.83813 | -77.28235 | 5890 ft | 286 kts | 120° |
| 2026-04-24 17:06 | 38.82865 | -77.26131 | 5805 ft | 276 kts | 120° |
| 2026-04-24 17:07 | 38.81876 | -77.23932 | 5737 ft | 277 kts | 120° |
| 2026-04-24 17:07 | 38.80919 | -77.21804 | 5684 ft | 277 kts | 119° |
| 2026-04-24 17:07 | 38.78675 | -77.16824 | 5479 ft | 276 kts | 120° |
| 2026-04-24 17:08 | 38.77028 | -77.13288 | 5339 ft | 275 kts | 128° |
| 2026-04-24 17:08 | 38.75566 | -77.11817 | 5209 ft | 273 kts | 158° |
| 2026-04-24 17:08 | 38.73734 | -77.11324 | 5170 ft | 270 kts | 179° |
| 2026-04-24 17:09 | 38.69951 | -77.11051 | 5045 ft | 271 kts | 179° |
| 2026-04-24 17:09 | 38.66316 | -77.10825 | 4892 ft | 251 kts | 180° |
| 2026-04-24 17:10 | 38.64601 | -77.10722 | 4754 ft | 244 kts | 178° |
| 2026-04-24 17:10 | 38.61444 | -77.06550 | 4054 ft | 233 kts | 86° |
| 2026-04-24 17:11 | 38.64159 | -77.02651 | 3490 ft | 199 kts | 11° |
| 2026-04-24 17:12 | 38.70686 | -77.02323 | 2453 ft | 185 kts | 353° |